sensor_id;sensor_type;location;lat;lon;timestamp;P1;durP1;ratioP1;P2;durP2;ratioP2
70205;SDS011;57593;55.896;37.396;2022-07-29T00:00:22;3.75;;;1.70;;
70205;SDS011;57593;55.896;37.396;2022-07-29T00:02:48;5.38;;;1.90;;
70205;SDS011;57593;55.896;37.396;2022-07-29T00:05:13;5.55;;;2.10;;
70205;SDS011;57593;55.896;37.396;2022-07-29T00:07:39;5.47;;;2.15;;
70205;SDS011;57593;55.896;37.396;2022-07-29T00:10:06;5.82;;;2.10;;
70205;SDS011;57593;55.896;37.396;2022-07-29T00:12:32;3.83;;;1.95;;
70205;SDS011;57593;55.896;37.396;2022-07-29T00:14:57;2.67;;;1.70;;
70205;SDS011;57593;55.896;37.396;2022-07-29T00:17:23;2.70;;;1.98;;
70205;SDS011;57593;55.896;37.396;2022-07-29T00:19:50;2.53;;;1.73;;
70205;SDS011;57593;55.896;37.396;2022-07-29T00:22:16;4.05;;;2.20;;
70205;SDS011;57593;55.896;37.396;2022-07-29T00:24:42;3.95;;;1.70;;
70205;SDS011;57593;55.896;37.396;2022-07-29T00:27:07;6.43;;;2.10;;
70205;SDS011;57593;55.896;37.396;2022-07-29T00:29:33;4.13;;;1.98;;
70205;SDS011;57593;55.896;37.396;2022-07-29T00:31:59;3.30;;;2.33;;
70205;SDS011;57593;55.896;37.396;2022-07-29T00:34:25;2.90;;;2.17;;
70205;SDS011;57593;55.896;37.396;2022-07-29T00:37:09;3.42;;;2.17;;
70205;SDS011;57593;55.896;37.396;2022-07-29T00:39:35;5.53;;;2.13;;
70205;SDS011;57593;55.896;37.396;2022-07-29T00:42:04;3.30;;;1.80;;
70205;SDS011;57593;55.896;37.396;2022-07-29T00:44:30;5.45;;;2.10;;
70205;SDS011;57593;55.896;37.396;2022-07-29T00:46:56;4.45;;;1.90;;
70205;SDS011;57593;55.896;37.396;2022-07-29T00:49:22;6.35;;;2.70;;
70205;SDS011;57593;55.896;37.396;2022-07-29T00:51:47;5.07;;;1.92;;
70205;SDS011;57593;55.896;37.396;2022-07-29T00:54:14;3.92;;;1.90;;
70205;SDS011;57593;55.896;37.396;2022-07-29T00:56:40;3.45;;;1.88;;
70205;SDS011;57593;55.896;37.396;2022-07-29T00:59:05;4.00;;;2.10;;
70205;SDS011;57593;55.896;37.396;2022-07-29T01:01:31;2.90;;;2.08;;
70205;SDS011;57593;55.896;37.396;2022-07-29T01:03:57;4.43;;;1.92;;
70205;SDS011;57593;55.896;37.396;2022-07-29T01:06:23;6.13;;;2.22;;
70205;SDS011;57593;55.896;37.396;2022-07-29T01:08:49;4.95;;;2.20;;
70205;SDS011;57593;55.896;37.396;2022-07-29T01:11:16;4.78;;;2.58;;
70205;SDS011;57593;55.896;37.396;2022-07-29T01:13:43;7.05;;;3.10;;
70205;SDS011;57593;55.896;37.396;2022-07-29T01:16:13;7.72;;;2.45;;
70205;SDS011;57593;55.896;37.396;2022-07-29T01:19:00;5.70;;;2.50;;
70205;SDS011;57593;55.896;37.396;2022-07-29T01:21:57;6.82;;;2.50;;
70205;SDS011;57593;55.896;37.396;2022-07-29T01:27:22;8.20;;;2.40;;
70205;SDS011;57593;55.896;37.396;2022-07-29T01:30:03;6.28;;;2.50;;
70205;SDS011;57593;55.896;37.396;2022-07-29T01:32:31;8.18;;;2.60;;
70205;SDS011;57593;55.896;37.396;2022-07-29T01:35:17;4.75;;;2.30;;
70205;SDS011;57593;55.896;37.396;2022-07-29T01:43:11;5.35;;;2.40;;
70205;SDS011;57593;55.896;37.396;2022-07-29T01:48:44;6.72;;;2.70;;
70205;SDS011;57593;55.896;37.396;2022-07-29T01:51:18;4.60;;;2.70;;
70205;SDS011;57593;55.896;37.396;2022-07-29T01:53:47;6.20;;;2.65;;
70205;SDS011;57593;55.896;37.396;2022-07-29T01:56:20;3.60;;;2.33;;
70205;SDS011;57593;55.896;37.396;2022-07-29T01:58:49;7.07;;;2.58;;
70205;SDS011;57593;55.896;37.396;2022-07-29T02:01:17;5.15;;;2.83;;
70205;SDS011;57593;55.896;37.396;2022-07-29T02:03:44;5.95;;;2.83;;
70205;SDS011;57593;55.896;37.396;2022-07-29T02:06:12;5.93;;;2.67;;
70205;SDS011;57593;55.896;37.396;2022-07-29T02:08:46;3.88;;;2.40;;
70205;SDS011;57593;55.896;37.396;2022-07-29T02:11:13;4.35;;;2.75;;
70205;SDS011;57593;55.896;37.396;2022-07-29T02:13:40;5.15;;;2.70;;
70205;SDS011;57593;55.896;37.396;2022-07-29T02:16:07;3.45;;;2.55;;
70205;SDS011;57593;55.896;37.396;2022-07-29T02:18:36;5.70;;;2.30;;
70205;SDS011;57593;55.896;37.396;2022-07-29T02:21:04;4.72;;;2.28;;
70205;SDS011;57593;55.896;37.396;2022-07-29T02:23:30;6.50;;;2.53;;
70205;SDS011;57593;55.896;37.396;2022-07-29T02:26:00;6.60;;;3.00;;
70205;SDS011;57593;55.896;37.396;2022-07-29T02:28:27;8.02;;;2.75;;
70205;SDS011;57593;55.896;37.396;2022-07-29T02:30:58;4.20;;;2.40;;
70205;SDS011;57593;55.896;37.396;2022-07-29T02:33:26;4.53;;;2.55;;
70205;SDS011;57593;55.896;37.396;2022-07-29T02:35:54;6.25;;;2.33;;
70205;SDS011;57593;55.896;37.396;2022-07-29T02:38:22;8.90;;;2.38;;
70205;SDS011;57593;55.896;37.396;2022-07-29T02:41:11;5.15;;;2.10;;
70205;SDS011;57593;55.896;37.396;2022-07-29T02:43:40;5.00;;;2.80;;
70205;SDS011;57593;55.896;37.396;2022-07-29T02:46:10;11.90;;;4.68;;
70205;SDS011;57593;55.896;37.396;2022-07-29T02:48:51;5.70;;;2.65;;
70205;SDS011;57593;55.896;37.396;2022-07-29T02:53:53;4.97;;;2.45;;
70205;SDS011;57593;55.896;37.396;2022-07-29T02:56:23;4.75;;;2.50;;
70205;SDS011;57593;55.896;37.396;2022-07-29T02:58:54;2.60;;;2.08;;
70205;SDS011;57593;55.896;37.396;2022-07-29T03:01:23;8.18;;;2.45;;
70205;SDS011;57593;55.896;37.396;2022-07-29T03:03:52;6.32;;;2.42;;
70205;SDS011;57593;55.896;37.396;2022-07-29T03:06:19;6.50;;;2.58;;
70205;SDS011;57593;55.896;37.396;2022-07-29T03:08:47;9.27;;;2.75;;
70205;SDS011;57593;55.896;37.396;2022-07-29T03:11:14;3.00;;;2.15;;
70205;SDS011;57593;55.896;37.396;2022-07-29T03:13:42;4.38;;;2.28;;
70205;SDS011;57593;55.896;37.396;2022-07-29T03:16:09;6.00;;;2.70;;
70205;SDS011;57593;55.896;37.396;2022-07-29T03:18:36;3.65;;;1.80;;
70205;SDS011;57593;55.896;37.396;2022-07-29T03:21:02;7.15;;;2.55;;
70205;SDS011;57593;55.896;37.396;2022-07-29T03:23:28;5.13;;;2.17;;
70205;SDS011;57593;55.896;37.396;2022-07-29T03:25:54;6.32;;;2.30;;
70205;SDS011;57593;55.896;37.396;2022-07-29T03:28:21;4.60;;;1.98;;
70205;SDS011;57593;55.896;37.396;2022-07-29T03:30:48;5.57;;;2.03;;
70205;SDS011;57593;55.896;37.396;2022-07-29T03:33:14;8.05;;;2.53;;
70205;SDS011;57593;55.896;37.396;2022-07-29T03:35:40;3.50;;;1.92;;
70205;SDS011;57593;55.896;37.396;2022-07-29T03:38:06;2.90;;;2.05;;
70205;SDS011;57593;55.896;37.396;2022-07-29T03:43:09;3.10;;;2.10;;
70205;SDS011;57593;55.896;37.396;2022-07-29T03:45:37;9.25;;;2.40;;
70205;SDS011;57593;55.896;37.396;2022-07-29T03:48:07;5.00;;;2.00;;
70205;SDS011;57593;55.896;37.396;2022-07-29T03:50:35;2.53;;;1.98;;
70205;SDS011;57593;55.896;37.396;2022-07-29T03:53:01;5.25;;;2.08;;
70205;SDS011;57593;55.896;37.396;2022-07-29T03:55:28;6.07;;;2.20;;
70205;SDS011;57593;55.896;37.396;2022-07-29T03:57:57;3.90;;;1.92;;
70205;SDS011;57593;55.896;37.396;2022-07-29T04:00:25;3.53;;;2.10;;
70205;SDS011;57593;55.896;37.396;2022-07-29T04:02:52;4.78;;;2.10;;
70205;SDS011;57593;55.896;37.396;2022-07-29T04:05:18;5.57;;;1.88;;
70205;SDS011;57593;55.896;37.396;2022-07-29T04:07:45;2.38;;;1.95;;
70205;SDS011;57593;55.896;37.396;2022-07-29T04:10:12;4.97;;;1.75;;
70205;SDS011;57593;55.896;37.396;2022-07-29T04:12:40;4.90;;;1.63;;
70205;SDS011;57593;55.896;37.396;2022-07-29T04:15:06;5.72;;;2.30;;
70205;SDS011;57593;55.896;37.396;2022-07-29T04:17:33;5.30;;;1.80;;
70205;SDS011;57593;55.896;37.396;2022-07-29T04:19:59;3.20;;;1.70;;
70205;SDS011;57593;55.896;37.396;2022-07-29T04:22:24;4.90;;;1.40;;
70205;SDS011;57593;55.896;37.396;2022-07-29T04:24:50;3.40;;;1.98;;
70205;SDS011;57593;55.896;37.396;2022-07-29T04:27:16;4.97;;;1.70;;
70205;SDS011;57593;55.896;37.396;2022-07-29T04:29:42;4.60;;;1.70;;
70205;SDS011;57593;55.896;37.396;2022-07-29T04:32:07;3.58;;;1.90;;
70205;SDS011;57593;55.896;37.396;2022-07-29T04:34:33;2.83;;;1.75;;
70205;SDS011;57593;55.896;37.396;2022-07-29T04:36:59;3.70;;;1.63;;
70205;SDS011;57593;55.896;37.396;2022-07-29T04:39:25;6.47;;;1.80;;
70205;SDS011;57593;55.896;37.396;2022-07-29T04:41:51;4.05;;;1.50;;
70205;SDS011;57593;55.896;37.396;2022-07-29T04:44:17;4.53;;;1.70;;
70205;SDS011;57593;55.896;37.396;2022-07-29T04:46:43;4.72;;;1.60;;
70205;SDS011;57593;55.896;37.396;2022-07-29T04:49:08;3.05;;;1.63;;
70205;SDS011;57593;55.896;37.396;2022-07-29T04:51:34;4.82;;;2.13;;
70205;SDS011;57593;55.896;37.396;2022-07-29T04:54:00;7.00;;;1.90;;
70205;SDS011;57593;55.896;37.396;2022-07-29T04:56:26;4.07;;;1.50;;
70205;SDS011;57593;55.896;37.396;2022-07-29T04:58:52;2.33;;;1.75;;
70205;SDS011;57593;55.896;37.396;2022-07-29T05:01:18;4.85;;;1.88;;
70205;SDS011;57593;55.896;37.396;2022-07-29T05:03:44;4.63;;;1.80;;
70205;SDS011;57593;55.896;37.396;2022-07-29T05:06:11;3.33;;;1.50;;
70205;SDS011;57593;55.896;37.396;2022-07-29T05:08:36;3.67;;;1.50;;
70205;SDS011;57593;55.896;37.396;2022-07-29T05:11:02;7.57;;;1.98;;
70205;SDS011;57593;55.896;37.396;2022-07-29T05:13:29;4.90;;;1.83;;
70205;SDS011;57593;55.896;37.396;2022-07-29T05:15:54;2.25;;;1.45;;
70205;SDS011;57593;55.896;37.396;2022-07-29T05:18:20;6.38;;;1.48;;
70205;SDS011;57593;55.896;37.396;2022-07-29T05:20:46;6.93;;;1.80;;
70205;SDS011;57593;55.896;37.396;2022-07-29T05:23:12;2.63;;;1.73;;
70205;SDS011;57593;55.896;37.396;2022-07-29T05:25:38;6.63;;;1.80;;
70205;SDS011;57593;55.896;37.396;2022-07-29T05:28:04;3.45;;;1.75;;
70205;SDS011;57593;55.896;37.396;2022-07-29T05:30:30;2.22;;;1.50;;
70205;SDS011;57593;55.896;37.396;2022-07-29T05:32:56;5.85;;;1.73;;
70205;SDS011;57593;55.896;37.396;2022-07-29T05:35:21;3.78;;;1.83;;
70205;SDS011;57593;55.896;37.396;2022-07-29T05:37:47;3.53;;;1.55;;
70205;SDS011;57593;55.896;37.396;2022-07-29T05:40:13;3.30;;;1.58;;
70205;SDS011;57593;55.896;37.396;2022-07-29T05:42:39;2.72;;;1.60;;
70205;SDS011;57593;55.896;37.396;2022-07-29T05:45:05;4.00;;;2.20;;
70205;SDS011;57593;55.896;37.396;2022-07-29T05:47:31;3.55;;;1.50;;
70205;SDS011;57593;55.896;37.396;2022-07-29T05:49:57;4.40;;;1.50;;
70205;SDS011;57593;55.896;37.396;2022-07-29T05:52:22;2.78;;;1.40;;
70205;SDS011;57593;55.896;37.396;2022-07-29T05:54:48;4.82;;;1.45;;
70205;SDS011;57593;55.896;37.396;2022-07-29T05:57:15;5.18;;;1.52;;
70205;SDS011;57593;55.896;37.396;2022-07-29T05:59:44;4.32;;;1.65;;
70205;SDS011;57593;55.896;37.396;2022-07-29T06:02:10;2.50;;;1.60;;
70205;SDS011;57593;55.896;37.396;2022-07-29T06:04:36;1.92;;;1.45;;
70205;SDS011;57593;55.896;37.396;2022-07-29T06:07:02;3.63;;;1.40;;
70205;SDS011;57593;55.896;37.396;2022-07-29T06:09:28;2.25;;;1.55;;
70205;SDS011;57593;55.896;37.396;2022-07-29T06:11:54;2.45;;;1.25;;
70205;SDS011;57593;55.896;37.396;2022-07-29T06:14:20;2.83;;;1.40;;
70205;SDS011;57593;55.896;37.396;2022-07-29T06:16:46;4.93;;;1.55;;
70205;SDS011;57593;55.896;37.396;2022-07-29T06:19:11;2.63;;;1.45;;
70205;SDS011;57593;55.896;37.396;2022-07-29T06:21:41;5.50;;;1.98;;
70205;SDS011;57593;55.896;37.396;2022-07-29T06:24:07;4.68;;;1.25;;
70205;SDS011;57593;55.896;37.396;2022-07-29T06:26:33;2.35;;;1.20;;
70205;SDS011;57593;55.896;37.396;2022-07-29T06:28:59;3.55;;;1.45;;
70205;SDS011;57593;55.896;37.396;2022-07-29T06:31:25;1.77;;;1.20;;
70205;SDS011;57593;55.896;37.396;2022-07-29T06:33:51;3.00;;;1.30;;
70205;SDS011;57593;55.896;37.396;2022-07-29T06:36:16;2.03;;;0.95;;
70205;SDS011;57593;55.896;37.396;2022-07-29T06:38:42;2.88;;;1.30;;
70205;SDS011;57593;55.896;37.396;2022-07-29T06:41:08;2.83;;;1.10;;
70205;SDS011;57593;55.896;37.396;2022-07-29T06:43:38;4.72;;;1.10;;
70205;SDS011;57593;55.896;37.396;2022-07-29T06:46:07;1.60;;;1.30;;
70205;SDS011;57593;55.896;37.396;2022-07-29T06:52:23;2.97;;;1.40;;
70205;SDS011;57593;55.896;37.396;2022-07-29T06:54:50;1.27;;;1.00;;
70205;SDS011;57593;55.896;37.396;2022-07-29T06:57:16;3.45;;;1.20;;
70205;SDS011;57593;55.896;37.396;2022-07-29T06:59:42;2.70;;;0.95;;
70205;SDS011;57593;55.896;37.396;2022-07-29T07:02:07;2.90;;;1.10;;
70205;SDS011;57593;55.896;37.396;2022-07-29T07:04:33;3.05;;;1.10;;
70205;SDS011;57593;55.896;37.396;2022-07-29T07:06:59;3.90;;;0.90;;
70205;SDS011;57593;55.896;37.396;2022-07-29T07:09:25;3.63;;;1.15;;
70205;SDS011;57593;55.896;37.396;2022-07-29T07:11:50;2.00;;;0.88;;
70205;SDS011;57593;55.896;37.396;2022-07-29T07:14:16;2.42;;;0.90;;
70205;SDS011;57593;55.896;37.396;2022-07-29T07:16:42;2.72;;;1.10;;
70205;SDS011;57593;55.896;37.396;2022-07-29T07:19:08;1.20;;;0.80;;
70205;SDS011;57593;55.896;37.396;2022-07-29T07:21:33;2.90;;;1.00;;
70205;SDS011;57593;55.896;37.396;2022-07-29T07:23:59;2.72;;;1.10;;
70205;SDS011;57593;55.896;37.396;2022-07-29T07:26:26;2.60;;;1.38;;
70205;SDS011;57593;55.896;37.396;2022-07-29T07:28:52;4.60;;;1.10;;
70205;SDS011;57593;55.896;37.396;2022-07-29T07:31:18;3.00;;;0.90;;
70205;SDS011;57593;55.896;37.396;2022-07-29T07:33:43;2.55;;;0.90;;
70205;SDS011;57593;55.896;37.396;2022-07-29T07:36:09;1.98;;;0.98;;
70205;SDS011;57593;55.896;37.396;2022-07-29T07:38:35;1.45;;;0.98;;
70205;SDS011;57593;55.896;37.396;2022-07-29T07:41:01;2.42;;;1.10;;
70205;SDS011;57593;55.896;37.396;2022-07-29T07:43:27;6.88;;;0.80;;
70205;SDS011;57593;55.896;37.396;2022-07-29T07:45:53;2.15;;;0.88;;
70205;SDS011;57593;55.896;37.396;2022-07-29T07:48:19;2.08;;;1.00;;
70205;SDS011;57593;55.896;37.396;2022-07-29T07:50:44;3.05;;;0.88;;
70205;SDS011;57593;55.896;37.396;2022-07-29T07:53:10;2.85;;;0.98;;
70205;SDS011;57593;55.896;37.396;2022-07-29T07:55:43;1.42;;;0.65;;
70205;SDS011;57593;55.896;37.396;2022-07-29T07:58:09;1.33;;;0.90;;
70205;SDS011;57593;55.896;37.396;2022-07-29T08:00:35;1.52;;;0.70;;
70205;SDS011;57593;55.896;37.396;2022-07-29T08:03:01;0.80;;;0.60;;
70205;SDS011;57593;55.896;37.396;2022-07-29T08:05:26;1.50;;;0.70;;
70205;SDS011;57593;55.896;37.396;2022-07-29T08:07:52;3.45;;;0.88;;
70205;SDS011;57593;55.896;37.396;2022-07-29T08:10:18;2.00;;;1.08;;
70205;SDS011;57593;55.896;37.396;2022-07-29T08:13:03;1.42;;;0.73;;
70205;SDS011;57593;55.896;37.396;2022-07-29T08:15:31;1.55;;;0.80;;
70205;SDS011;57593;55.896;37.396;2022-07-29T08:17:57;2.20;;;0.80;;
70205;SDS011;57593;55.896;37.396;2022-07-29T08:20:22;2.05;;;0.70;;
70205;SDS011;57593;55.896;37.396;2022-07-29T08:22:48;0.93;;;0.70;;
70205;SDS011;57593;55.896;37.396;2022-07-29T08:25:14;1.63;;;1.08;;
70205;SDS011;57593;55.896;37.396;2022-07-29T08:27:39;1.48;;;1.00;;
70205;SDS011;57593;55.896;37.396;2022-07-29T08:30:05;0.77;;;0.50;;
70205;SDS011;57593;55.896;37.396;2022-07-29T08:32:32;1.52;;;1.00;;
70205;SDS011;57593;55.896;37.396;2022-07-29T08:34:57;2.95;;;0.70;;
70205;SDS011;57593;55.896;37.396;2022-07-29T08:37:23;1.52;;;0.75;;
70205;SDS011;57593;55.896;37.396;2022-07-29T08:39:49;1.83;;;0.80;;
70205;SDS011;57593;55.896;37.396;2022-07-29T08:42:15;1.25;;;0.77;;
70205;SDS011;57593;55.896;37.396;2022-07-29T08:44:42;1.23;;;0.70;;
70205;SDS011;57593;55.896;37.396;2022-07-29T08:47:07;1.58;;;0.65;;
70205;SDS011;57593;55.896;37.396;2022-07-29T08:49:34;1.88;;;0.65;;
70205;SDS011;57593;55.896;37.396;2022-07-29T08:52:01;2.05;;;0.63;;
70205;SDS011;57593;55.896;37.396;2022-07-29T08:54:27;1.02;;;0.73;;
70205;SDS011;57593;55.896;37.396;2022-07-29T08:56:54;2.95;;;0.77;;
70205;SDS011;57593;55.896;37.396;2022-07-29T08:59:22;2.40;;;0.60;;
70205;SDS011;57593;55.896;37.396;2022-07-29T09:01:50;3.15;;;1.27;;
70205;SDS011;57593;55.896;37.396;2022-07-29T09:04:18;2.22;;;0.65;;
70205;SDS011;57593;55.896;37.396;2022-07-29T09:06:46;1.45;;;0.60;;
70205;SDS011;57593;55.896;37.396;2022-07-29T09:09:14;1.13;;;0.60;;
70205;SDS011;57593;55.896;37.396;2022-07-29T09:11:41;1.38;;;0.60;;
70205;SDS011;57593;55.896;37.396;2022-07-29T09:14:07;1.80;;;0.70;;
70205;SDS011;57593;55.896;37.396;2022-07-29T09:19:29;0.95;;;0.60;;
70205;SDS011;57593;55.896;37.396;2022-07-29T09:21:56;1.40;;;0.90;;
70205;SDS011;57593;55.896;37.396;2022-07-29T09:24:36;2.90;;;1.13;;
70205;SDS011;57593;55.896;37.396;2022-07-29T09:27:04;0.68;;;0.60;;
70205;SDS011;57593;55.896;37.396;2022-07-29T09:29:34;1.15;;;0.70;;
70205;SDS011;57593;55.896;37.396;2022-07-29T09:32:00;0.95;;;0.80;;
70205;SDS011;57593;55.896;37.396;2022-07-29T09:34:26;0.60;;;0.60;;
70205;SDS011;57593;55.896;37.396;2022-07-29T09:36:57;2.70;;;0.65;;
70205;SDS011;57593;55.896;37.396;2022-07-29T09:39:33;1.10;;;0.63;;
70205;SDS011;57593;55.896;37.396;2022-07-29T09:42:05;1.08;;;0.65;;
70205;SDS011;57593;55.896;37.396;2022-07-29T09:44:41;1.60;;;0.90;;
70205;SDS011;57593;55.896;37.396;2022-07-29T09:47:09;1.35;;;0.75;;
70205;SDS011;57593;55.896;37.396;2022-07-29T09:49:36;1.88;;;0.80;;
70205;SDS011;57593;55.896;37.396;2022-07-29T09:52:16;1.00;;;0.60;;
70205;SDS011;57593;55.896;37.396;2022-07-29T09:54:42;2.97;;;0.77;;
70205;SDS011;57593;55.896;37.396;2022-07-29T09:57:08;1.00;;;0.40;;
70205;SDS011;57593;55.896;37.396;2022-07-29T09:59:55;0.65;;;0.50;;
70205;SDS011;57593;55.896;37.396;2022-07-29T10:02:26;0.95;;;0.60;;
70205;SDS011;57593;55.896;37.396;2022-07-29T10:04:53;1.73;;;0.70;;
70205;SDS011;57593;55.896;37.396;2022-07-29T10:07:19;1.63;;;0.60;;
70205;SDS011;57593;55.896;37.396;2022-07-29T10:09:55;0.98;;;0.70;;
70205;SDS011;57593;55.896;37.396;2022-07-29T10:12:22;0.85;;;0.70;;
70205;SDS011;57593;55.896;37.396;2022-07-29T10:14:48;1.88;;;0.70;;
70205;SDS011;57593;55.896;37.396;2022-07-29T10:17:15;1.90;;;1.00;;
70205;SDS011;57593;55.896;37.396;2022-07-29T10:19:42;0.70;;;0.50;;
70205;SDS011;57593;55.896;37.396;2022-07-29T10:22:08;2.03;;;1.25;;
70205;SDS011;57593;55.896;37.396;2022-07-29T10:24:36;1.17;;;0.60;;
70205;SDS011;57593;55.896;37.396;2022-07-29T10:27:03;2.65;;;0.50;;
70205;SDS011;57593;55.896;37.396;2022-07-29T10:29:30;0.95;;;0.50;;
70205;SDS011;57593;55.896;37.396;2022-07-29T10:43:28;2.15;;;0.80;;
70205;SDS011;57593;55.896;37.396;2022-07-29T10:45:59;2.38;;;0.75;;
70205;SDS011;57593;55.896;37.396;2022-07-29T10:48:26;2.78;;;0.75;;
70205;SDS011;57593;55.896;37.396;2022-07-29T10:50:59;0.95;;;0.60;;
70205;SDS011;57593;55.896;37.396;2022-07-29T10:56:32;1.73;;;0.60;;
70205;SDS011;57593;55.896;37.396;2022-07-29T11:01:48;1.60;;;0.70;;
70205;SDS011;57593;55.896;37.396;2022-07-29T11:04:15;1.98;;;0.73;;
70205;SDS011;57593;55.896;37.396;2022-07-29T11:09:25;2.03;;;0.85;;
70205;SDS011;57593;55.896;37.396;2022-07-29T11:11:51;1.23;;;0.70;;
70205;SDS011;57593;55.896;37.396;2022-07-29T11:14:18;1.80;;;0.60;;
70205;SDS011;57593;55.896;37.396;2022-07-29T11:17:05;1.70;;;0.80;;
70205;SDS011;57593;55.896;37.396;2022-07-29T11:19:31;1.80;;;0.80;;
70205;SDS011;57593;55.896;37.396;2022-07-29T11:21:57;1.10;;;0.60;;
70205;SDS011;57593;55.896;37.396;2022-07-29T11:24:29;1.42;;;0.90;;
70205;SDS011;57593;55.896;37.396;2022-07-29T11:27:07;1.50;;;0.95;;
70205;SDS011;57593;55.896;37.396;2022-07-29T11:29:56;5.45;;;0.90;;
70205;SDS011;57593;55.896;37.396;2022-07-29T11:32:22;1.48;;;0.77;;
70205;SDS011;57593;55.896;37.396;2022-07-29T11:35:10;1.00;;;0.90;;
70205;SDS011;57593;55.896;37.396;2022-07-29T11:37:40;2.38;;;0.85;;
70205;SDS011;57593;55.896;37.396;2022-07-29T11:40:07;1.35;;;0.70;;
70205;SDS011;57593;55.896;37.396;2022-07-29T11:42:37;1.58;;;0.70;;
70205;SDS011;57593;55.896;37.396;2022-07-29T11:45:20;0.85;;;0.70;;
70205;SDS011;57593;55.896;37.396;2022-07-29T11:50:17;0.90;;;0.60;;
70205;SDS011;57593;55.896;37.396;2022-07-29T11:52:57;2.63;;;0.73;;
70205;SDS011;57593;55.896;37.396;2022-07-29T11:55:23;1.05;;;0.68;;
70205;SDS011;57593;55.896;37.396;2022-07-29T11:57:57;0.98;;;0.80;;
70205;SDS011;57593;55.896;37.396;2022-07-29T12:00:27;2.08;;;0.85;;
70205;SDS011;57593;55.896;37.396;2022-07-29T12:02:53;1.83;;;0.70;;
70205;SDS011;57593;55.896;37.396;2022-07-29T12:05:19;1.95;;;0.70;;
70205;SDS011;57593;55.896;37.396;2022-07-29T12:07:46;0.90;;;0.80;;
70205;SDS011;57593;55.896;37.396;2022-07-29T12:10:13;1.88;;;0.80;;
70205;SDS011;57593;55.896;37.396;2022-07-29T12:12:39;1.63;;;0.70;;
70205;SDS011;57593;55.896;37.396;2022-07-29T12:17:37;1.10;;;0.98;;
70205;SDS011;57593;55.896;37.396;2022-07-29T12:20:04;0.90;;;0.75;;
70205;SDS011;57593;55.896;37.396;2022-07-29T12:22:32;0.80;;;0.80;;
70205;SDS011;57593;55.896;37.396;2022-07-29T12:25:08;2.78;;;0.93;;
70205;SDS011;57593;55.896;37.396;2022-07-29T12:27:36;0.85;;;0.80;;
70205;SDS011;57593;55.896;37.396;2022-07-29T12:30:04;3.97;;;0.75;;
70205;SDS011;57593;55.896;37.396;2022-07-29T12:32:45;2.35;;;0.80;;
70205;SDS011;57593;55.896;37.396;2022-07-29T12:35:14;1.75;;;0.65;;
70205;SDS011;57593;55.896;37.396;2022-07-29T12:37:42;2.15;;;0.68;;
70205;SDS011;57593;55.896;37.396;2022-07-29T12:40:11;3.95;;;0.85;;
70205;SDS011;57593;55.896;37.396;2022-07-29T12:42:39;0.88;;;0.70;;
70205;SDS011;57593;55.896;37.396;2022-07-29T12:45:06;1.88;;;0.80;;
70205;SDS011;57593;55.896;37.396;2022-07-29T12:47:32;1.55;;;0.70;;
70205;SDS011;57593;55.896;37.396;2022-07-29T12:50:10;0.80;;;0.70;;
70205;SDS011;57593;55.896;37.396;2022-07-29T12:52:43;1.20;;;0.60;;
70205;SDS011;57593;55.896;37.396;2022-07-29T12:55:10;2.95;;;0.63;;
70205;SDS011;57593;55.896;37.396;2022-07-29T12:57:46;2.22;;;0.65;;
70205;SDS011;57593;55.896;37.396;2022-07-29T13:00:13;2.25;;;0.70;;
70205;SDS011;57593;55.896;37.396;2022-07-29T13:02:41;0.70;;;0.70;;
70205;SDS011;57593;55.896;37.396;2022-07-29T13:05:09;1.92;;;0.80;;
70205;SDS011;57593;55.896;37.396;2022-07-29T13:07:36;2.85;;;0.70;;
70205;SDS011;57593;55.896;37.396;2022-07-29T13:10:13;1.10;;;0.63;;
70205;SDS011;57593;55.896;37.396;2022-07-29T13:15:27;1.73;;;0.70;;
70205;SDS011;57593;55.896;37.396;2022-07-29T13:17:53;1.02;;;0.60;;
70205;SDS011;57593;55.896;37.396;2022-07-29T13:20:18;3.55;;;0.80;;
70205;SDS011;57593;55.896;37.396;2022-07-29T13:22:49;1.73;;;0.80;;
70205;SDS011;57593;55.896;37.396;2022-07-29T13:25:23;0.90;;;0.70;;
70205;SDS011;57593;55.896;37.396;2022-07-29T13:27:52;1.45;;;0.60;;
70205;SDS011;57593;55.896;37.396;2022-07-29T13:30:19;0.90;;;0.80;;
70205;SDS011;57593;55.896;37.396;2022-07-29T13:32:46;1.20;;;0.82;;
70205;SDS011;57593;55.896;37.396;2022-07-29T13:35:12;1.38;;;0.80;;
70205;SDS011;57593;55.896;37.396;2022-07-29T13:37:38;1.00;;;0.60;;
70205;SDS011;57593;55.896;37.396;2022-07-29T13:40:08;1.80;;;0.63;;
70205;SDS011;57593;55.896;37.396;2022-07-29T13:42:34;0.80;;;0.70;;
70205;SDS011;57593;55.896;37.396;2022-07-29T13:45:00;0.90;;;0.70;;
70205;SDS011;57593;55.896;37.396;2022-07-29T13:47:26;1.48;;;0.90;;
70205;SDS011;57593;55.896;37.396;2022-07-29T13:49:53;0.90;;;0.70;;
70205;SDS011;57593;55.896;37.396;2022-07-29T13:52:19;2.17;;;0.77;;
70205;SDS011;57593;55.896;37.396;2022-07-29T13:54:45;0.95;;;0.80;;
70205;SDS011;57593;55.896;37.396;2022-07-29T13:57:12;1.75;;;0.73;;
70205;SDS011;57593;55.896;37.396;2022-07-29T13:59:39;1.10;;;0.90;;
70205;SDS011;57593;55.896;37.396;2022-07-29T14:02:08;2.40;;;0.80;;
70205;SDS011;57593;55.896;37.396;2022-07-29T14:04:35;1.35;;;1.10;;
70205;SDS011;57593;55.896;37.396;2022-07-29T14:07:01;1.25;;;1.10;;
70205;SDS011;57593;55.896;37.396;2022-07-29T14:09:27;1.40;;;0.77;;
70205;SDS011;57593;55.896;37.396;2022-07-29T14:11:53;0.50;;;0.50;;
70205;SDS011;57593;55.896;37.396;2022-07-29T14:14:19;1.13;;;1.10;;
70205;SDS011;57593;55.896;37.396;2022-07-29T14:16:45;1.75;;;0.77;;
70205;SDS011;57593;55.896;37.396;2022-07-29T14:19:11;1.40;;;1.30;;
70205;SDS011;57593;55.896;37.396;2022-07-29T14:21:37;2.22;;;1.40;;
70205;SDS011;57593;55.896;37.396;2022-07-29T14:24:04;3.90;;;2.67;;
70205;SDS011;57593;55.896;37.396;2022-07-29T14:26:30;3.25;;;2.72;;
70205;SDS011;57593;55.896;37.396;2022-07-29T14:28:56;5.75;;;5.45;;
70205;SDS011;57593;55.896;37.396;2022-07-29T14:31:21;3.95;;;3.75;;
70205;SDS011;57593;55.896;37.396;2022-07-29T14:33:47;3.08;;;2.88;;
70205;SDS011;57593;55.896;37.396;2022-07-29T14:36:13;2.72;;;0.65;;
70205;SDS011;57593;55.896;37.396;2022-07-29T14:38:39;2.35;;;1.10;;
70205;SDS011;57593;55.896;37.396;2022-07-29T14:41:06;1.25;;;0.70;;
70205;SDS011;57593;55.896;37.396;2022-07-29T14:43:33;2.10;;;0.73;;
70205;SDS011;57593;55.896;37.396;2022-07-29T14:45:59;1.45;;;0.80;;
70205;SDS011;57593;55.896;37.396;2022-07-29T14:48:25;2.45;;;0.93;;
70205;SDS011;57593;55.896;37.396;2022-07-29T14:50:51;1.25;;;0.90;;
70205;SDS011;57593;55.896;37.396;2022-07-29T14:53:17;2.10;;;1.13;;
70205;SDS011;57593;55.896;37.396;2022-07-29T14:55:43;1.02;;;0.70;;
70205;SDS011;57593;55.896;37.396;2022-07-29T14:58:09;2.75;;;0.90;;
70205;SDS011;57593;55.896;37.396;2022-07-29T15:00:35;2.80;;;1.15;;
70205;SDS011;57593;55.896;37.396;2022-07-29T15:03:02;2.80;;;1.13;;
70205;SDS011;57593;55.896;37.396;2022-07-29T15:05:29;3.08;;;1.00;;
70205;SDS011;57593;55.896;37.396;2022-07-29T15:07:55;2.45;;;2.25;;
70205;SDS011;57593;55.896;37.396;2022-07-29T15:10:21;2.33;;;1.10;;
70205;SDS011;57593;55.896;37.396;2022-07-29T15:12:47;5.20;;;1.55;;
70205;SDS011;57593;55.896;37.396;2022-07-29T15:15:12;1.90;;;0.70;;
70205;SDS011;57593;55.896;37.396;2022-07-29T15:17:38;2.28;;;0.85;;
70205;SDS011;57593;55.896;37.396;2022-07-29T15:20:04;3.30;;;1.10;;
70205;SDS011;57593;55.896;37.396;2022-07-29T15:22:30;9.13;;;8.57;;
70205;SDS011;57593;55.896;37.396;2022-07-29T15:24:56;2.78;;;1.30;;
70205;SDS011;57593;55.896;37.396;2022-07-29T15:27:21;2.88;;;0.70;;